createdAt,value
2022-09-11T00:01:42.307Z,26.92
2022-09-11T00:04:13.722Z,21.65
2022-09-11T00:06:43.924Z,22.33
2022-09-11T00:09:16.011Z,29.47
2022-09-11T00:11:44.515Z,24.10
2022-09-11T00:14:14.326Z,21.70
2022-09-11T00:16:45.015Z,21.33
2022-09-11T00:19:15.877Z,20.75
2022-09-11T00:21:44.102Z,22.27
2022-09-11T00:24:13.946Z,24.48
2022-09-11T00:26:42.705Z,25.13
2022-09-11T00:29:11.966Z,27.58
2022-09-11T00:31:42.174Z,26.00
2022-09-11T00:34:11.516Z,25.65
2022-09-11T00:36:43.261Z,30.48
2022-09-11T00:39:12.585Z,26.02
2022-09-11T00:41:46.303Z,27.60
2022-09-11T00:44:52.592Z,29.45
2022-09-11T00:47:22.189Z,28.15
2022-09-11T00:49:53.288Z,28.45
2022-09-11T00:52:25.225Z,26.00
2022-09-11T00:54:58.355Z,26.77
2022-09-11T00:57:35.052Z,30.02
2022-09-11T01:00:05.502Z,27.17
2022-09-11T01:02:37.103Z,24.35
2022-09-11T01:05:06.386Z,27.87
2022-09-11T01:07:42.021Z,28.13
2022-09-11T01:10:17.121Z,28.05
2022-09-11T01:12:56.755Z,25.15
2022-09-11T01:15:31.692Z,31.48
2022-09-11T01:18:07.493Z,29.15
2022-09-11T01:20:47.017Z,28.15
2022-09-11T01:23:31.395Z,29.80
2022-09-11T01:26:38.860Z,28.80
2022-09-11T01:29:14.022Z,31.70
2022-09-11T01:31:46.187Z,26.60
2022-09-11T01:34:20.463Z,37.53
2022-09-11T01:36:54.429Z,34.25
2022-09-11T01:39:27.459Z,25.50
2022-09-11T01:42:01.814Z,31.08
2022-09-11T01:44:34.971Z,31.85
2022-09-11T01:47:04.861Z,32.40
2022-09-11T01:49:36.726Z,34.63
2022-09-11T01:52:07.784Z,32.60
2022-09-11T01:54:50.278Z,32.42
2022-09-11T01:57:21.982Z,37.17
2022-09-11T01:59:56.326Z,29.50
2022-09-11T02:02:28.379Z,38.45
2022-09-11T02:05:01.917Z,30.98
2022-09-11T02:07:33.884Z,33.47
2022-09-11T02:12:41.014Z,34.50
2022-09-11T02:15:13.823Z,32.05
2022-09-11T02:17:49.198Z,35.45
2022-09-11T02:20:17.672Z,35.85
2022-09-11T02:22:46.036Z,31.63
2022-09-11T02:25:14.743Z,32.10
2022-09-11T02:27:43.968Z,41.90
2022-09-11T02:30:14.790Z,33.45
2022-09-11T02:32:46.021Z,34.15
2022-09-11T02:35:16.467Z,35.53
2022-09-11T02:37:51.347Z,33.28
2022-09-11T02:40:39.248Z,32.53
2022-09-11T02:43:20.910Z,32.95
2022-09-11T02:45:55.498Z,35.60
2022-09-11T02:48:48.861Z,33.72
2022-09-11T02:51:23.410Z,33.60
2022-09-11T02:54:01.886Z,29.35
2022-09-11T02:56:37.685Z,36.05
2022-09-11T02:59:11.992Z,31.95
2022-09-11T03:01:53.563Z,31.98
2022-09-11T03:04:25.158Z,29.33
2022-09-11T03:06:58.150Z,28.37
2022-09-11T03:09:26.456Z,30.98
2022-09-11T03:11:55.233Z,32.90
2022-09-11T03:14:24.427Z,28.75
2022-09-11T03:16:56.133Z,28.58
2022-09-11T03:19:24.338Z,30.15
2022-09-11T03:21:52.793Z,28.65
2022-09-11T03:24:22.410Z,29.95
2022-09-11T03:26:52.176Z,29.40
2022-09-11T03:29:21.442Z,29.17
2022-09-11T03:31:50.059Z,28.15
2022-09-11T03:34:20.672Z,30.02
2022-09-11T03:36:49.069Z,34.63
2022-09-11T03:39:17.533Z,33.05
2022-09-11T03:41:45.598Z,33.75
2022-09-11T03:44:14.421Z,38.22
2022-09-11T03:46:44.925Z,42.65
2022-09-11T03:49:12.901Z,34.15
2022-09-11T03:51:43.961Z,42.78
2022-09-11T03:54:12.421Z,57.65
2022-09-11T03:56:41.142Z,59.63
2022-09-11T03:59:09.762Z,71.85
2022-09-11T04:01:41.334Z,64.25
2022-09-11T04:04:11.366Z,67.57
2022-09-11T04:06:39.530Z,70.95
2022-09-11T04:09:09.379Z,73.13
2022-09-11T04:11:39.159Z,73.85
2022-09-11T04:14:10.820Z,105.78
2022-09-11T04:16:39.042Z,98.65
2022-09-11T04:19:07.551Z,67.10
2022-09-11T04:21:36.012Z,86.28
2022-09-11T04:24:05.671Z,73.65
2022-09-11T04:26:35.095Z,72.07
2022-09-11T04:29:03.462Z,68.60
2022-09-11T04:31:31.952Z,63.70
2022-09-11T04:34:00.900Z,62.67
2022-09-11T04:36:30.224Z,52.22
2022-09-11T04:39:00.314Z,47.22
2022-09-11T04:41:28.893Z,45.88
2022-09-11T04:44:04.905Z,45.13
2022-09-11T04:46:34.558Z,44.28
2022-09-11T04:49:02.925Z,38.35
2022-09-11T04:51:33.400Z,40.22
2022-09-11T04:54:02.589Z,38.83
2022-09-11T04:56:32.235Z,39.35
2022-09-11T04:59:03.723Z,36.90
2022-09-11T05:01:33.788Z,38.80
2022-09-11T05:04:04.338Z,43.60
2022-09-11T05:06:33.161Z,39.10
2022-09-11T05:09:03.167Z,41.55
2022-09-11T05:11:31.861Z,38.53
2022-09-11T05:14:01.751Z,39.50
2022-09-11T05:16:30.853Z,46.83
2022-09-11T05:19:00.238Z,40.65
2022-09-11T05:21:29.784Z,42.13
2022-09-11T05:24:01.159Z,41.78
2022-09-11T05:26:32.260Z,51.08
2022-09-11T05:29:03.248Z,45.75
2022-09-11T05:31:34.308Z,44.90
2022-09-11T05:34:04.239Z,47.03
2022-09-11T05:36:34.443Z,52.08
2022-09-11T05:39:03.811Z,42.63
2022-09-11T05:41:31.971Z,50.03
2022-09-11T05:44:01.521Z,52.13
2022-09-11T05:46:29.607Z,43.45
2022-09-11T05:48:59.141Z,47.80
2022-09-11T05:51:27.995Z,47.35
2022-09-11T05:54:01.351Z,47.53
2022-09-11T05:56:30.169Z,45.28
2022-09-11T05:59:05.043Z,43.90
2022-09-11T06:01:33.268Z,44.83
2022-09-11T06:04:06.488Z,44.50
2022-09-11T06:06:34.851Z,50.30
2022-09-11T06:09:04.630Z,45.45
2022-09-11T06:11:32.785Z,41.00
2022-09-11T06:14:02.256Z,45.83
2022-09-11T06:16:31.528Z,47.50
2022-09-11T06:19:01.429Z,41.25
2022-09-11T06:21:33.272Z,49.13
2022-09-11T06:24:01.364Z,44.78
2022-09-11T06:26:32.520Z,39.88
2022-09-11T06:29:03.127Z,46.20
2022-09-11T06:31:31.371Z,43.42
2022-09-11T06:34:00.394Z,45.40
2022-09-11T06:36:30.092Z,51.92
2022-09-11T06:38:59.222Z,44.10
2022-09-11T06:41:28.381Z,41.83
2022-09-11T06:43:56.974Z,43.45
2022-09-11T06:46:29.497Z,41.55
2022-09-11T06:48:57.813Z,46.72
2022-09-11T06:51:27.300Z,46.08
2022-09-11T06:53:58.202Z,47.10
2022-09-11T06:56:27.178Z,44.88
2022-09-11T06:58:55.691Z,48.03
2022-09-11T07:01:26.988Z,47.42
2022-09-11T07:03:56.255Z,46.38
2022-09-11T07:06:26.042Z,44.17
2022-09-11T07:09:00.938Z,41.88
2022-09-11T07:11:32.317Z,41.58
2022-09-11T07:14:00.933Z,36.13
2022-09-11T07:16:30.272Z,32.25
2022-09-11T07:18:59.115Z,29.90
2022-09-11T07:21:28.787Z,40.22
2022-09-11T07:23:59.791Z,28.20
2022-09-11T07:26:29.738Z,29.27
2022-09-11T07:28:59.696Z,30.25
2022-09-11T07:31:32.847Z,28.33
2022-09-11T07:34:04.416Z,32.60
2022-09-11T07:36:34.742Z,30.73
2022-09-11T07:39:05.515Z,31.10
2022-09-11T07:41:34.761Z,34.10
2022-09-11T07:44:04.021Z,33.28
2022-09-11T07:46:35.438Z,29.90
2022-09-11T07:49:03.742Z,28.00
2022-09-11T07:51:33.386Z,35.05
2022-09-11T07:54:01.564Z,30.17
2022-09-11T07:56:31.358Z,28.00
2022-09-11T07:58:59.561Z,37.10
2022-09-11T08:01:31.206Z,34.25
2022-09-11T08:04:02.854Z,34.75
2022-09-11T08:06:33.442Z,32.40
2022-09-11T08:09:05.265Z,29.33
2022-09-11T08:11:38.295Z,23.55
2022-09-11T08:14:07.616Z,26.85
2022-09-11T08:16:37.240Z,23.70
2022-09-11T08:19:08.148Z,23.33
2022-09-11T08:21:37.918Z,25.00
2022-09-11T08:24:07.378Z,19.75
2022-09-11T08:26:40.016Z,23.55
2022-09-11T08:29:10.222Z,21.55
2022-09-11T08:31:39.274Z,22.70
2022-09-11T08:34:10.533Z,24.55
2022-09-11T08:36:38.978Z,26.52
2022-09-11T08:39:09.332Z,25.02
2022-09-11T08:41:42.614Z,26.35
2022-09-11T08:44:18.592Z,23.92
2022-09-11T08:46:50.822Z,28.98
2022-09-11T08:51:51.480Z,26.15
2022-09-11T08:54:26.885Z,27.10
2022-09-11T08:56:58.529Z,27.23
2022-09-11T08:59:39.013Z,23.00
2022-09-11T09:02:20.569Z,25.13
2022-09-11T09:05:08.355Z,24.03
2022-09-11T09:07:42.645Z,25.27
2022-09-11T09:10:15.667Z,30.77
2022-09-11T09:12:51.180Z,26.52
2022-09-11T09:15:32.645Z,24.75
2022-09-11T09:18:03.593Z,25.80
2022-09-11T09:20:38.183Z,22.73
2022-09-11T09:23:14.336Z,27.55
2022-09-11T09:25:46.405Z,22.55
2022-09-11T09:28:19.700Z,24.45
2022-09-11T09:30:51.610Z,26.08
2022-09-11T09:33:32.590Z,21.83
2022-09-11T09:36:14.814Z,24.67
2022-09-11T09:38:44.323Z,22.83
2022-09-11T09:41:25.184Z,28.98
2022-09-11T09:43:59.621Z,19.88
2022-09-11T09:46:36.743Z,19.95
2022-09-11T09:49:05.491Z,21.45
2022-09-11T09:51:36.434Z,18.52
2022-09-11T09:54:07.485Z,19.77
2022-09-11T09:56:37.925Z,18.45
2022-09-11T09:59:18.186Z,17.65
2022-09-11T10:01:48.536Z,18.98
2022-09-11T10:04:24.237Z,16.45
2022-09-11T10:06:55.379Z,18.85
2022-09-11T10:09:26.314Z,20.02
2022-09-11T10:12:02.026Z,21.77
2022-09-11T10:14:50.514Z,17.42
2022-09-11T10:17:24.764Z,19.13
2022-09-11T10:19:57.294Z,17.25
2022-09-11T10:22:29.805Z,15.75
2022-09-11T10:25:10.161Z,17.17
2022-09-11T10:27:45.169Z,14.98
2022-09-11T10:30:30.284Z,14.45
2022-09-11T10:33:03.531Z,12.73
2022-09-11T10:35:35.804Z,13.60
2022-09-11T10:38:17.908Z,12.52
2022-09-11T10:41:03.314Z,12.60
2022-09-11T10:43:37.205Z,10.68
2022-09-11T10:46:20.846Z,12.48
2022-09-11T10:48:57.475Z,12.45
2022-09-11T10:51:26.837Z,13.52
2022-09-11T10:54:05.776Z,13.27
2022-09-11T10:56:40.067Z,13.95
2022-09-11T10:59:14.347Z,15.35
2022-09-11T11:01:43.563Z,14.02
2022-09-11T11:04:12.684Z,11.35
2022-09-11T11:06:51.163Z,11.70
2022-09-11T11:09:31.281Z,10.43
2022-09-11T11:12:11.249Z,9.68
2022-09-11T11:14:58.754Z,7.22
2022-09-11T11:17:36.612Z,10.88
2022-09-11T11:20:14.185Z,10.88
2022-09-11T11:23:01.842Z,10.77
2022-09-11T11:25:36.971Z,11.85
2022-09-11T11:28:21.520Z,8.18
2022-09-11T11:30:55.348Z,8.93
2022-09-11T11:33:42.522Z,9.63
2022-09-11T11:36:15.390Z,7.07
2022-09-11T11:38:47.707Z,8.07
2022-09-11T11:41:22.819Z,7.72
2022-09-11T11:43:56.134Z,8.32
2022-09-11T11:46:28.941Z,7.38
2022-09-11T11:48:59.933Z,6.60
2022-09-11T11:51:30.264Z,7.13
2022-09-11T11:54:01.037Z,7.05
2022-09-11T11:56:35.262Z,10.18
2022-09-11T11:59:08.387Z,9.68
2022-09-11T12:01:40.184Z,8.73
2022-09-11T12:04:17.702Z,9.13
2022-09-11T12:06:46.877Z,8.20
2022-09-11T12:09:17.128Z,7.53
2022-09-11T12:11:50.799Z,9.85
2022-09-11T12:14:28.370Z,6.03
2022-09-11T12:16:57.082Z,6.45
2022-09-11T12:19:26.230Z,5.63
2022-09-11T12:22:12.021Z,7.15
2022-09-11T12:24:55.381Z,5.15
2022-09-11T12:27:52.352Z,5.60
2022-09-11T12:30:23.860Z,7.97
2022-09-11T12:32:52.858Z,6.07
2022-09-11T12:35:24.179Z,5.88
2022-09-11T12:37:59.412Z,4.93
2022-09-11T12:40:33.810Z,5.88
2022-09-11T12:43:27.938Z,5.75
2022-09-11T12:45:58.194Z,5.15
2022-09-11T12:48:37.251Z,4.65
2022-09-11T12:51:06.815Z,5.13
2022-09-11T12:53:42.744Z,6.60
2022-09-11T12:56:19.295Z,6.95
2022-09-11T12:58:54.640Z,4.95
2022-09-11T13:01:27.758Z,4.60
2022-09-11T13:03:59.907Z,5.57
2022-09-11T13:06:40.044Z,6.55
2022-09-11T13:09:10.839Z,6.20
2022-09-11T13:11:43.487Z,7.43
2022-09-11T13:14:45.274Z,7.50
2022-09-11T13:17:18.609Z,6.45
2022-09-11T13:19:48.210Z,7.15
2022-09-11T13:22:25.250Z,6.15
2022-09-11T13:25:06.387Z,6.40
2022-09-11T13:27:37.631Z,7.25
2022-09-11T13:30:08.083Z,7.55
2022-09-11T13:32:38.620Z,12.30
2022-09-11T13:35:11.164Z,14.55
2022-09-11T13:37:40.910Z,15.00
2022-09-11T13:40:19.180Z,20.42
2022-09-11T13:42:47.450Z,17.48
2022-09-11T13:45:18.115Z,13.63
2022-09-11T13:47:48.213Z,15.57
2022-09-11T13:50:18.385Z,19.25
2022-09-11T13:52:47.068Z,16.42
2022-09-11T13:55:19.257Z,17.08
2022-09-11T14:00:47.166Z,17.13
2022-09-11T14:03:23.238Z,18.42
2022-09-11T14:05:53.958Z,14.73
2022-09-11T14:08:34.903Z,14.48
2022-09-11T14:11:10.425Z,16.60
2022-09-11T14:13:43.740Z,14.20
2022-09-11T14:16:22.570Z,22.45
2022-09-11T14:18:55.591Z,14.75
2022-09-11T14:21:27.923Z,12.48
2022-09-11T14:26:26.359Z,17.02
2022-09-11T14:29:01.824Z,14.65
2022-09-11T14:31:33.981Z,10.60
2022-09-11T14:36:50.401Z,14.20
2022-09-11T14:39:29.092Z,11.25
2022-09-11T14:42:00.480Z,9.48
2022-09-11T14:44:33.835Z,9.33
2022-09-11T14:47:03.799Z,10.48
2022-09-11T14:49:33.480Z,9.75
2022-09-11T14:52:02.467Z,11.95
2022-09-11T14:54:32.529Z,9.93
2022-09-11T14:57:03.834Z,8.55
2022-09-11T14:59:35.399Z,11.70
2022-09-11T15:02:03.639Z,9.50
2022-09-11T15:04:33.297Z,9.35
2022-09-11T15:07:03.197Z,9.05
2022-09-11T15:09:31.372Z,8.13
2022-09-11T15:11:59.639Z,9.95
2022-09-11T15:14:54.409Z,7.30
2022-09-11T15:17:22.007Z,7.40
2022-09-11T15:19:55.995Z,9.23
2022-09-11T15:22:26.856Z,10.02
2022-09-11T15:24:56.451Z,7.30
2022-09-11T15:27:29.245Z,7.38
2022-09-11T15:29:57.322Z,8.55
2022-09-11T15:32:26.273Z,6.65
2022-09-11T15:34:56.349Z,7.28
2022-09-11T15:37:25.796Z,9.93
2022-09-11T15:39:56.419Z,7.60
2022-09-11T15:42:25.374Z,6.18
2022-09-11T15:44:53.683Z,8.55
2022-09-11T15:47:22.471Z,7.05
2022-09-11T15:49:52.546Z,7.05
2022-09-11T15:52:22.687Z,8.70
2022-09-11T15:54:51.023Z,8.60
2022-09-11T15:57:20.348Z,6.35
2022-09-11T15:59:49.936Z,10.73
2022-09-11T16:02:18.185Z,6.03
2022-09-11T16:04:50.462Z,6.43
2022-09-11T16:07:23.799Z,7.72
2022-09-11T16:09:52.623Z,7.28
2022-09-11T16:12:21.157Z,7.15
2022-09-11T16:14:49.248Z,6.35
2022-09-11T16:17:20.677Z,6.53
2022-09-11T16:19:48.996Z,9.33
2022-09-11T16:22:17.556Z,11.35
2022-09-11T16:24:50.146Z,6.40
2022-09-11T16:27:18.145Z,5.88
2022-09-11T16:32:38.276Z,6.50
2022-09-11T16:35:08.731Z,6.30
2022-09-11T16:37:38.572Z,6.78
2022-09-11T16:40:10.814Z,11.30
2022-09-11T16:45:12.436Z,9.43
2022-09-11T16:47:40.679Z,6.50
2022-09-11T16:50:09.509Z,7.47
2022-09-11T16:52:38.898Z,9.32
2022-09-11T16:55:11.639Z,8.40
2022-09-11T16:57:41.615Z,7.20
2022-09-11T17:00:14.722Z,9.75
2022-09-11T17:02:43.290Z,9.82
2022-09-11T17:05:12.190Z,9.13
2022-09-11T17:07:41.845Z,11.13
2022-09-11T17:10:15.045Z,7.25
2022-09-11T17:12:43.450Z,7.53
2022-09-11T17:15:11.955Z,7.25
2022-09-11T17:17:41.161Z,11.52
2022-09-11T17:20:11.755Z,9.23
2022-09-11T17:22:41.036Z,9.77
2022-09-11T17:25:11.634Z,10.05
2022-09-11T17:27:41.803Z,12.85
2022-09-11T17:30:13.073Z,10.15
2022-09-11T17:32:41.495Z,9.93
2022-09-11T17:35:10.931Z,11.25
2022-09-11T17:37:39.618Z,9.43
2022-09-11T17:40:09.748Z,9.07
2022-09-11T17:42:38.568Z,9.30
2022-09-11T17:45:10.485Z,9.77
2022-09-11T17:47:43.070Z,10.98
2022-09-11T17:50:12.073Z,9.35
2022-09-11T17:52:42.970Z,13.15
2022-09-11T17:55:14.030Z,8.90
2022-09-11T17:57:44.784Z,11.30
2022-09-11T18:00:15.532Z,8.75
2022-09-11T18:02:47.958Z,10.45
2022-09-11T18:05:17.783Z,12.23
2022-09-11T18:07:48.523Z,12.93
2022-09-11T18:10:16.677Z,10.45
2022-09-11T18:12:46.469Z,13.55
2022-09-11T18:15:19.275Z,13.68
2022-09-11T18:17:49.942Z,10.63
2022-09-11T18:20:20.213Z,15.60
2022-09-11T18:22:50.702Z,20.17
2022-09-11T18:25:23.273Z,16.25
2022-09-11T18:27:51.460Z,17.88
2022-09-11T18:30:22.491Z,12.95
2022-09-11T18:32:51.701Z,15.60
2022-09-11T18:35:19.780Z,17.70
2022-09-11T18:37:49.026Z,16.52
2022-09-11T18:40:17.419Z,15.65
2022-09-11T18:42:46.145Z,16.48
2022-09-11T18:45:16.999Z,17.63
2022-09-11T18:47:53.680Z,17.33
2022-09-11T18:50:22.467Z,20.02
2022-09-11T18:52:56.578Z,20.73
2022-09-11T18:55:24.685Z,21.45
2022-09-11T18:57:53.231Z,22.10
2022-09-11T19:00:21.860Z,20.95
2022-09-11T19:02:55.728Z,20.83
2022-09-11T19:05:25.021Z,22.65
2022-09-11T19:08:00.203Z,19.95
2022-09-11T19:10:28.906Z,19.67
2022-09-11T19:12:57.412Z,18.95
2022-09-11T19:15:26.048Z,24.35
2022-09-11T19:17:56.822Z,22.42
2022-09-11T19:20:29.204Z,21.38
2022-09-11T19:25:33.947Z,21.98
2022-09-11T19:28:05.146Z,18.83
2022-09-11T19:30:35.176Z,21.33
2022-09-11T19:33:05.377Z,21.63
2022-09-11T19:35:36.634Z,22.60
2022-09-11T19:38:05.945Z,21.98
2022-09-11T19:40:37.123Z,17.85
2022-09-11T19:43:05.211Z,18.50
2022-09-11T19:45:34.084Z,15.23
2022-09-11T19:48:05.974Z,12.93
2022-09-11T19:50:37.363Z,12.50
2022-09-11T19:53:07.186Z,9.43
2022-09-11T19:55:36.307Z,12.55
2022-09-11T19:58:05.949Z,9.32
2022-09-11T20:00:37.770Z,8.55
2022-09-11T20:03:06.991Z,7.22
2022-09-11T20:05:41.888Z,8.95
2022-09-11T20:08:15.921Z,12.70
2022-09-11T20:10:48.512Z,8.63
2022-09-11T20:13:19.446Z,7.85
2022-09-11T20:15:47.485Z,9.23
2022-09-11T20:18:21.901Z,8.70
2022-09-11T20:20:51.781Z,8.68
2022-09-11T20:23:19.815Z,10.13
2022-09-11T20:25:48.162Z,9.82
2022-09-11T20:28:17.152Z,10.93
2022-09-11T20:30:45.368Z,11.73
2022-09-11T20:33:14.031Z,11.07
2022-09-11T20:35:42.254Z,14.90
2022-09-11T20:38:11.939Z,10.25
2022-09-11T20:40:42.790Z,8.43
2022-09-11T20:43:14.234Z,12.55
2022-09-11T20:45:43.688Z,11.88
2022-09-11T20:48:11.988Z,9.88
2022-09-11T20:50:39.985Z,13.02
2022-09-11T20:53:08.129Z,10.43
2022-09-11T20:55:37.608Z,8.85
2022-09-11T20:58:07.038Z,13.82
2022-09-11T21:00:35.371Z,10.93
2022-09-11T21:03:03.924Z,18.00
2022-09-11T21:05:31.963Z,10.77
2022-09-11T21:08:00.102Z,12.88
2022-09-11T21:10:28.937Z,10.40
2022-09-11T21:12:58.644Z,10.73
2022-09-11T21:15:26.900Z,12.57
2022-09-11T21:17:54.891Z,10.80
2022-09-11T21:20:23.323Z,10.63
2022-09-11T21:22:54.108Z,10.13
2022-09-11T21:25:22.680Z,10.65
2022-09-11T21:27:52.716Z,11.13
2022-09-11T21:30:22.119Z,12.35
2022-09-11T21:32:52.378Z,10.38
2022-09-11T21:35:20.661Z,11.90
2022-09-11T21:37:52.466Z,11.20
2022-09-11T21:40:21.115Z,9.50
2022-09-11T21:42:50.646Z,12.80
2022-09-11T21:45:19.134Z,11.23
2022-09-11T21:47:48.476Z,12.05
2022-09-11T21:50:16.695Z,10.88
2022-09-11T21:52:47.458Z,14.10
2022-09-11T21:55:16.222Z,10.55
2022-09-11T21:57:44.751Z,15.55
2022-09-11T22:00:14.151Z,10.43
2022-09-11T22:02:42.348Z,11.35
2022-09-11T22:05:11.816Z,9.73
2022-09-11T22:07:40.098Z,13.63
2022-09-11T22:10:09.104Z,9.80
2022-09-11T22:12:37.858Z,11.40
2022-09-11T22:15:07.727Z,12.40
2022-09-11T22:17:36.887Z,9.65
2022-09-11T22:20:09.316Z,13.05
2022-09-11T22:25:09.195Z,9.82
2022-09-11T22:27:37.461Z,11.55
2022-09-11T22:30:08.244Z,12.52
2022-09-11T22:32:40.014Z,10.73
2022-09-11T22:35:08.634Z,13.00
2022-09-11T22:37:39.259Z,9.80
2022-09-11T22:40:08.998Z,10.02
2022-09-11T22:42:37.462Z,9.07
2022-09-11T22:45:07.937Z,10.20
2022-09-11T22:47:37.634Z,9.50
2022-09-11T22:50:08.090Z,10.80
2022-09-11T22:52:38.501Z,10.00
2022-09-11T22:55:11.100Z,11.02
2022-09-11T22:57:40.129Z,8.05
2022-09-11T23:00:11.939Z,8.13
2022-09-11T23:02:42.758Z,9.00
2022-09-11T23:05:29.409Z,10.80
2022-09-11T23:07:57.540Z,7.78
2022-09-11T23:10:27.810Z,10.40
2022-09-11T23:12:56.251Z,10.70
2022-09-11T23:15:24.587Z,7.97
2022-09-11T23:17:52.848Z,11.07
2022-09-11T23:20:23.585Z,10.38
2022-09-11T23:22:52.517Z,9.68
2022-09-11T23:25:21.682Z,13.30
2022-09-11T23:27:51.956Z,10.57
2022-09-11T23:30:21.210Z,11.43
2022-09-11T23:32:49.637Z,8.57
2022-09-11T23:35:18.606Z,8.75
2022-09-11T23:37:46.726Z,11.18
2022-09-11T23:40:15.346Z,12.07
2022-09-11T23:42:43.918Z,14.00
2022-09-11T23:45:14.242Z,10.43
2022-09-11T23:47:43.032Z,11.82
2022-09-11T23:50:11.526Z,11.85
2022-09-11T23:52:39.858Z,11.00
2022-09-11T23:55:08.860Z,18.10
2022-09-11T23:57:37.261Z,10.52
